Ginys del Meteocat

Dades de l'estació automàtica Perafita

?
?
Resum diari 21:30 TU
Dades diàries de l'estació meteorològica
Temperatura mitjana sense dades
Temperatura màxima sense dades sense dades
Temperatura mínima sense dades sense dades
Humitat relativa mitjana 86%
Precipitació acumulada 0.3 mm
Ratxa màxima del vent (6 m) 18.4 km/h - 0º 14:08 TU
Irradiació solar global 2.3 MJ/m2

El tram horari està expressat en Temps Universal (TU). Cal sumar una hora en horari d'hivern i dues en horari d'estiu per passar a l'hora oficial.

Perafita

Metadades estació meteorol´gica
Municipi Perafita
Comarca Osona
Altitud 774 m
Data alta 03.07.1995
Estat actual Operativa
Dades de període
Període
TU
HRM
%
PPT
mm
VVM (6 m)
km/h
DVM (6 m)
graus
VVX (6 m)
km/h
RS
W/m2
00:00 - 00:30 100 0.1 3.6 58 6.1 0
00:30 - 01:00 100 0.0 5.0 61 6.8 0
01:00 - 01:30 100 0.0 5.0 67 6.5 0
01:30 - 02:00 100 0.0 5.0 59 7.2 0
02:00 - 02:30 (s/d) 0.0 5.4 61 7.9 (s/d)
02:30 - 03:00 (s/d) 0.0 7.6 64 10.1 (s/d)
03:00 - 03:30 (s/d) 0.0 9.0 130 10.8 (s/d)
03:30 - 04:00 (s/d) 0.1 6.5 (s/d) 10.1 (s/d)
04:00 - 04:30 (s/d) 0.0 6.8 86 9.0 (s/d)
04:30 - 05:00 (s/d) 0.0 6.5 90 8.6 (s/d)
05:00 - 05:30 (s/d) 0.0 5.4 160 6.8 (s/d)
05:30 - 06:00 (s/d) 0.0 6.1 (s/d) 8.3 (s/d)
06:00 - 06:30 (s/d) 0.0 6.1 266 9.0 (s/d)
06:30 - 07:00 (s/d) 0.0 5.8 (s/d) 7.9 (s/d)
07:00 - 07:30 (s/d) 0.1 5.4 (s/d) 8.6 (s/d)
07:30 - 08:00 (s/d) 0.0 3.6 (s/d) 6.1 (s/d)
08:00 - 08:30 (s/d) 0.0 1.8 (s/d) 5.4 (s/d)
08:30 - 09:00 (s/d) 0.0 0.4 (s/d) 1.8 (s/d)
09:00 - 09:30 (s/d) 0.0 0.7 (s/d) 2.9 (s/d)
09:30 - 10:00 (s/d) 0.0 3.6 (s/d) 10.1 (s/d)
10:00 - 10:30 83 0.0 4.3 186 10.8 388
10:30 - 11:00 75 0.0 4.7 201 14.4 431
11:00 - 11:30 71 0.0 7.9 199 14.0 467
11:30 - 12:00 75 0.0 5.8 211 13.7 (s/d)
12:00 - 12:30 (s/d) 0.0 5.8 (s/d) 10.8 (s/d)
12:30 - 13:00 (s/d) 0.0 8.3 (s/d) 15.5 (s/d)
13:00 - 13:30 (s/d) 0.0 6.8 (s/d) 14.4 (s/d)
13:30 - 14:00 (s/d) 0.0 7.6 (s/d) 16.6 (s/d)
14:00 - 14:30 (s/d) 0.0 8.3 0 18.4 (s/d)
14:30 - 15:00 (s/d) 0.0 6.1 0 14.4 (s/d)
15:00 - 15:30 (s/d) 0.0 4.0 0 11.9 (s/d)
15:30 - 16:00 67 0.0 2.9 164 9.4 (s/d)
16:00 - 16:30 (s/d) 0.0 3.6 0 8.6 (s/d)
16:30 - 17:00 (s/d) 0.0 3.6 0 7.2 (s/d)
17:00 - 17:30 (s/d) 0.0 3.6 0 6.5 (s/d)
17:30 - 18:00 (s/d) 0.0 4.0 0 7.2 (s/d)
18:00 - 18:30 (s/d) 0.0 2.9 0 5.0 (s/d)
18:30 - 19:00 (s/d) 0.0 2.9 0 4.0 (s/d)
19:00 - 19:30 (s/d) 0.0 3.2 0 5.4 (s/d)
19:30 - 20:00 (s/d) 0.0 3.2 0 5.0 (s/d)
20:00 - 20:30 (s/d) 0.0 2.2 0 3.6 (s/d)
20:30 - 21:00 (s/d) 0.0 2.5 0 3.6 (s/d)
21:00 - 21:30 (s/d) 0.0 4.7 0 7.9 (s/d)
21:30 - 22:00 (s/d) 0.0 6.1 0 8.3 (s/d)

Les dades en taronja només han passat un control de qualitat automàtic. Resta pendent la seva validació definitiva.